createdAt,value
2022-09-09T00:01:40.140Z,1.45
2022-09-09T00:04:15.545Z,1.58
2022-09-09T00:06:47.801Z,2.00
2022-09-09T00:09:17.932Z,1.88
2022-09-09T00:11:52.660Z,1.90
2022-09-09T00:14:39.899Z,2.03
2022-09-09T00:17:12.674Z,2.35
2022-09-09T00:19:51.571Z,2.10
2022-09-09T00:22:20.045Z,1.88
2022-09-09T00:24:48.712Z,2.58
2022-09-09T00:27:23.700Z,2.30
2022-09-09T00:30:10.015Z,2.03
2022-09-09T00:32:37.241Z,2.70
2022-09-09T00:35:20.172Z,2.60
2022-09-09T00:37:50.182Z,2.80
2022-09-09T00:40:36.768Z,3.30
2022-09-09T00:43:17.838Z,2.50
2022-09-09T00:45:55.728Z,2.70
2022-09-09T00:48:25.191Z,2.95
2022-09-09T00:50:58.070Z,3.05
2022-09-09T00:53:32.005Z,2.65
2022-09-09T00:56:11.119Z,2.72
2022-09-09T00:58:38.142Z,3.10
2022-09-09T01:01:12.758Z,3.13
2022-09-09T01:03:45.111Z,2.92
2022-09-09T01:06:15.004Z,3.30
2022-09-09T01:09:00.857Z,3.28
2022-09-09T01:11:30.562Z,3.20
2022-09-09T01:14:02.111Z,3.35
2022-09-09T01:16:30.848Z,3.70
2022-09-09T01:18:58.565Z,3.55
2022-09-09T01:21:26.843Z,3.38
2022-09-09T01:24:11.684Z,3.20
2022-09-09T01:26:39.408Z,3.28
2022-09-09T01:29:19.472Z,3.95
2022-09-09T01:31:59.903Z,3.60
2022-09-09T01:34:28.499Z,3.67
2022-09-09T01:36:59.819Z,3.65
2022-09-09T01:39:27.635Z,3.97
2022-09-09T01:41:55.466Z,3.58
2022-09-09T01:44:22.906Z,4.07
2022-09-09T01:46:49.956Z,4.05
2022-09-09T01:49:18.013Z,4.15
2022-09-09T01:51:45.596Z,3.65
2022-09-09T01:54:12.669Z,4.18
2022-09-09T01:56:39.654Z,4.18
2022-09-09T01:59:17.689Z,3.80
2022-09-09T02:02:00.264Z,3.75
2022-09-09T02:04:41.817Z,3.70
2022-09-09T02:07:14.919Z,3.40
2022-09-09T02:09:43.643Z,3.58
2022-09-09T02:12:13.497Z,3.90
2022-09-09T02:14:43.878Z,3.78
2022-09-09T02:17:11.924Z,3.90
2022-09-09T02:19:43.131Z,4.20
2022-09-09T02:22:10.791Z,3.90
2022-09-09T02:24:38.752Z,4.05
2022-09-09T02:27:07.439Z,4.28
2022-09-09T02:29:36.507Z,4.32
2022-09-09T02:32:06.653Z,4.13
2022-09-09T02:34:35.520Z,4.63
2022-09-09T02:37:03.506Z,4.57
2022-09-09T02:39:30.616Z,4.55
2022-09-09T02:41:57.643Z,4.60
2022-09-09T02:44:24.942Z,4.10
2022-09-09T02:47:18.517Z,5.07
2022-09-09T02:49:54.907Z,5.35
2022-09-09T02:52:26.819Z,4.65
2022-09-09T02:54:56.565Z,4.60
2022-09-09T02:57:32.432Z,5.40
2022-09-09T02:59:59.754Z,4.70
2022-09-09T03:02:26.878Z,5.70
2022-09-09T03:04:53.939Z,5.35
2022-09-09T03:07:21.450Z,4.75
2022-09-09T03:09:48.643Z,5.80
2022-09-09T03:12:15.599Z,5.47
2022-09-09T03:14:44.129Z,5.38
2022-09-09T03:17:11.295Z,5.63
2022-09-09T03:19:38.618Z,5.78
2022-09-09T03:22:05.583Z,5.28
2022-09-09T03:24:32.568Z,5.15
2022-09-09T03:26:59.562Z,5.75
2022-09-09T03:29:26.526Z,5.65
2022-09-09T03:31:53.605Z,5.65
2022-09-09T03:34:20.700Z,5.97
2022-09-09T03:36:49.633Z,5.68
2022-09-09T03:39:16.852Z,5.82
2022-09-09T03:41:46.441Z,6.43
2022-09-09T03:44:13.617Z,5.97
2022-09-09T03:46:40.930Z,5.88
2022-09-09T03:49:08.287Z,6.00
2022-09-09T03:51:37.111Z,5.85
2022-09-09T03:54:05.999Z,6.57
2022-09-09T03:56:33.018Z,6.45
2022-09-09T03:59:00.003Z,5.75
2022-09-09T04:01:27.003Z,5.72
2022-09-09T04:03:54.491Z,5.60
2022-09-09T04:06:22.267Z,5.88
2022-09-09T04:08:53.455Z,5.65
2022-09-09T04:11:20.784Z,5.75
2022-09-09T04:13:48.027Z,5.82
2022-09-09T04:16:15.615Z,6.10
2022-09-09T04:18:43.446Z,6.32
2022-09-09T04:21:11.388Z,6.03
2022-09-09T04:23:38.490Z,6.45
2022-09-09T04:26:05.824Z,5.72
2022-09-09T04:28:34.017Z,5.95
2022-09-09T04:31:14.394Z,5.28
2022-09-09T04:33:41.503Z,6.00
2022-09-09T04:36:09.263Z,5.28
2022-09-09T04:38:36.460Z,5.38
2022-09-09T04:41:03.775Z,5.97
2022-09-09T04:43:31.688Z,5.68
2022-09-09T04:46:00.438Z,6.10
2022-09-09T04:48:28.435Z,6.15
2022-09-09T04:51:02.116Z,5.25
2022-09-09T04:53:29.541Z,5.32
2022-09-09T04:56:03.581Z,5.68
2022-09-09T04:58:30.606Z,4.85
2022-09-09T05:01:04.112Z,6.05
2022-09-09T05:03:31.298Z,5.90
2022-09-09T05:06:07.343Z,5.15
2022-09-09T05:08:34.863Z,5.13
2022-09-09T05:11:01.934Z,5.10
2022-09-09T05:13:28.992Z,5.00
2022-09-09T05:15:56.352Z,4.95
2022-09-09T05:18:23.778Z,5.15
2022-09-09T05:20:52.554Z,4.75
2022-09-09T05:23:19.523Z,4.75
2022-09-09T05:25:56.549Z,4.63
2022-09-09T05:28:23.653Z,4.95
2022-09-09T05:31:01.476Z,5.35
2022-09-09T05:33:29.606Z,4.88
2022-09-09T05:35:58.224Z,4.95
2022-09-09T05:38:28.709Z,5.10
2022-09-09T05:40:57.679Z,5.85
2022-09-09T05:43:25.370Z,5.07
2022-09-09T05:46:05.439Z,5.22
2022-09-09T05:48:33.530Z,4.95
2022-09-09T05:51:00.687Z,4.80
2022-09-09T05:53:28.336Z,4.70
2022-09-09T05:56:04.395Z,5.10
2022-09-09T05:58:32.756Z,5.32
2022-09-09T06:01:04.208Z,5.05
2022-09-09T06:03:31.412Z,4.55
2022-09-09T06:05:59.629Z,4.32
2022-09-09T06:08:26.911Z,5.25
2022-09-09T06:10:54.625Z,4.57
2022-09-09T06:13:21.823Z,4.22
2022-09-09T06:15:53.056Z,5.18
2022-09-09T06:18:20.725Z,4.95
2022-09-09T06:20:56.703Z,4.60
2022-09-09T06:23:23.717Z,4.25
2022-09-09T06:25:51.682Z,3.80
2022-09-09T06:28:20.056Z,3.90
2022-09-09T06:30:48.331Z,3.92
2022-09-09T06:33:15.560Z,3.90
2022-09-09T06:35:42.523Z,4.50
2022-09-09T06:38:09.571Z,4.03
2022-09-09T06:40:36.735Z,3.53
2022-09-09T06:43:03.846Z,3.50
2022-09-09T06:45:31.121Z,2.88
2022-09-09T06:47:58.206Z,3.20
2022-09-09T06:50:25.383Z,3.20
2022-09-09T06:52:52.619Z,3.25
2022-09-09T06:55:20.304Z,3.10
2022-09-09T06:57:47.335Z,3.28
2022-09-09T07:00:15.212Z,2.92
2022-09-09T07:02:42.439Z,3.28
2022-09-09T07:05:09.874Z,2.80
2022-09-09T07:07:38.724Z,3.13
2022-09-09T07:10:05.888Z,2.80
2022-09-09T07:12:32.962Z,2.72
2022-09-09T07:15:00.285Z,3.45
2022-09-09T07:17:27.393Z,2.90
2022-09-09T07:19:54.401Z,2.90
2022-09-09T07:22:21.426Z,3.05
2022-09-09T07:24:50.702Z,2.67
2022-09-09T07:27:17.876Z,2.90
2022-09-09T07:29:46.215Z,3.00
2022-09-09T07:32:13.178Z,2.78
2022-09-09T07:34:40.924Z,2.80
2022-09-09T07:37:08.866Z,2.75
2022-09-09T07:39:35.902Z,2.95
2022-09-09T07:42:03.786Z,3.05
2022-09-09T07:44:30.864Z,2.60
2022-09-09T07:46:58.088Z,2.80
2022-09-09T07:49:30.996Z,2.35
2022-09-09T07:52:00.732Z,2.90
2022-09-09T07:54:28.482Z,2.55
2022-09-09T07:56:55.494Z,2.60
2022-09-09T07:59:22.628Z,3.63
2022-09-09T08:01:56.619Z,2.95
2022-09-09T08:04:25.078Z,3.22
2022-09-09T08:06:58.352Z,2.72
2022-09-09T08:09:29.909Z,2.83
2022-09-09T08:11:58.467Z,2.50
2022-09-09T08:14:25.926Z,2.85
2022-09-09T08:16:55.441Z,2.60
2022-09-09T08:19:22.586Z,2.78
2022-09-09T08:21:50.101Z,2.15
2022-09-09T08:24:17.256Z,2.80
2022-09-09T08:26:45.522Z,2.30
2022-09-09T08:29:14.743Z,2.17
2022-09-09T08:31:52.274Z,2.88
2022-09-09T08:34:21.270Z,2.72
2022-09-09T08:36:49.070Z,2.60
2022-09-09T08:39:17.701Z,2.40
2022-09-09T08:41:50.716Z,2.50
2022-09-09T08:44:38.664Z,2.50
2022-09-09T08:47:33.744Z,2.50
2022-09-09T08:50:04.382Z,2.20
2022-09-09T08:52:34.293Z,2.35
2022-09-09T08:55:13.435Z,2.20
2022-09-09T08:57:40.823Z,2.20
2022-09-09T09:00:11.414Z,2.20
2022-09-09T09:02:50.244Z,2.30
2022-09-09T09:05:21.391Z,2.33
2022-09-09T09:07:54.659Z,2.47
2022-09-09T09:10:41.258Z,2.08
2022-09-09T09:13:14.830Z,2.10
2022-09-09T09:15:43.540Z,1.95
2022-09-09T09:18:13.736Z,1.95
2022-09-09T09:20:53.385Z,2.08
2022-09-09T09:23:23.857Z,2.20
2022-09-09T09:25:52.684Z,2.25
2022-09-09T09:28:25.510Z,2.67
2022-09-09T09:31:05.412Z,2.40
2022-09-09T09:33:44.427Z,2.05
2022-09-09T09:36:12.143Z,2.45
2022-09-09T09:41:43.858Z,2.10
2022-09-09T09:44:27.587Z,1.90
2022-09-09T09:46:55.099Z,2.38
2022-09-09T09:49:22.453Z,2.38
2022-09-09T09:51:49.910Z,2.20
2022-09-09T09:54:21.390Z,2.22
2022-09-09T09:56:49.067Z,1.85
2022-09-09T09:59:38.735Z,1.92
2022-09-09T10:02:17.543Z,1.88
2022-09-09T10:04:46.347Z,1.95
2022-09-09T10:07:21.426Z,2.22
2022-09-09T10:09:58.295Z,1.85
2022-09-09T10:12:31.875Z,2.13
2022-09-09T10:15:02.120Z,2.13
2022-09-09T10:17:35.548Z,2.25
2022-09-09T10:20:12.131Z,2.20
2022-09-09T10:22:40.807Z,2.10
2022-09-09T10:25:22.116Z,1.88
2022-09-09T10:28:05.918Z,1.95
2022-09-09T10:30:41.017Z,2.08
2022-09-09T10:36:01.049Z,2.03
2022-09-09T10:39:03.580Z,1.90
2022-09-09T10:41:42.041Z,2.10
2022-09-09T10:44:12.145Z,2.30
2022-09-09T10:46:40.803Z,2.28
2022-09-09T10:49:24.151Z,2.17
2022-09-09T10:51:51.598Z,2.47
2022-09-09T10:54:36.258Z,2.58
2022-09-09T10:57:10.563Z,3.00
2022-09-09T10:59:43.097Z,2.67
2022-09-09T11:02:43.121Z,2.80
2022-09-09T11:05:22.859Z,2.55
2022-09-09T11:07:53.569Z,2.33
2022-09-09T11:10:20.643Z,2.55
2022-09-09T11:12:49.128Z,2.50
2022-09-09T11:15:21.492Z,2.30
2022-09-09T11:17:51.358Z,2.55
2022-09-09T11:20:19.014Z,2.58
2022-09-09T11:22:49.019Z,2.30
2022-09-09T11:25:28.218Z,2.50
2022-09-09T11:27:58.064Z,2.20
2022-09-09T11:30:55.711Z,1.95
2022-09-09T11:33:26.017Z,2.03
2022-09-09T11:36:07.924Z,2.03
2022-09-09T11:39:07.655Z,2.10
2022-09-09T11:41:37.542Z,1.88
2022-09-09T11:44:16.062Z,2.47
2022-09-09T11:46:43.515Z,2.05
2022-09-09T11:49:29.598Z,1.90
2022-09-09T11:51:56.650Z,2.00
2022-09-09T11:54:31.715Z,2.60
2022-09-09T11:56:59.076Z,2.42
2022-09-09T11:59:28.223Z,2.30
2022-09-09T12:02:13.995Z,1.90
2022-09-09T12:04:42.398Z,2.67
2022-09-09T12:07:12.423Z,2.40
2022-09-09T12:09:49.419Z,2.13
2022-09-09T12:12:16.629Z,2.30
2022-09-09T12:14:47.211Z,2.83
2022-09-09T12:17:17.028Z,2.35
2022-09-09T12:19:44.101Z,2.33
2022-09-09T12:22:16.410Z,2.45
2022-09-09T12:24:50.066Z,3.00
2022-09-09T12:27:25.566Z,2.75
2022-09-09T12:29:59.609Z,2.90
2022-09-09T12:32:27.971Z,2.63
2022-09-09T12:34:56.161Z,2.70
2022-09-09T12:37:33.056Z,2.60
2022-09-09T12:40:01.181Z,2.75
2022-09-09T12:42:28.663Z,2.80
2022-09-09T12:45:00.259Z,2.88
2022-09-09T12:47:31.626Z,3.17
2022-09-09T12:49:58.719Z,2.83
2022-09-09T12:52:33.619Z,2.80
2022-09-09T12:55:02.515Z,2.85
2022-09-09T12:57:34.628Z,2.85
2022-09-09T13:00:06.977Z,2.70
2022-09-09T13:02:34.173Z,2.28
2022-09-09T13:05:18.162Z,2.17
2022-09-09T13:07:45.198Z,2.10
2022-09-09T13:10:17.947Z,1.70
2022-09-09T13:12:52.613Z,2.30
2022-09-09T13:15:25.245Z,2.35
2022-09-09T13:17:57.215Z,2.58
2022-09-09T13:20:25.853Z,2.60
2022-09-09T13:22:53.998Z,2.70
2022-09-09T13:25:23.207Z,2.40
2022-09-09T13:27:54.662Z,2.60
2022-09-09T13:30:25.721Z,2.83
2022-09-09T13:33:03.243Z,2.58
2022-09-09T13:35:30.403Z,2.70
2022-09-09T13:37:58.137Z,2.80
2022-09-09T13:40:26.431Z,2.30
2022-09-09T13:42:56.112Z,2.50
2022-09-09T13:45:27.501Z,2.72
2022-09-09T13:47:56.382Z,3.13
2022-09-09T13:50:24.951Z,2.40
2022-09-09T13:52:54.012Z,2.35
2022-09-09T13:55:25.077Z,2.55
2022-09-09T13:57:56.135Z,2.40
2022-09-09T14:00:23.987Z,2.80
2022-09-09T14:02:51.236Z,2.78
2022-09-09T14:05:19.216Z,2.65
2022-09-09T14:07:50.089Z,2.92
2022-09-09T14:10:19.969Z,2.80
2022-09-09T14:12:47.591Z,2.25
2022-09-09T14:15:15.543Z,2.28
2022-09-09T14:17:42.992Z,2.33
2022-09-09T14:20:12.648Z,2.17
2022-09-09T14:22:42.786Z,2.55
2022-09-09T14:25:10.339Z,2.47
2022-09-09T14:27:37.679Z,2.70
2022-09-09T14:30:05.461Z,2.58
2022-09-09T14:32:32.604Z,2.58
2022-09-09T14:35:00.073Z,2.38
2022-09-09T14:37:27.276Z,2.60
2022-09-09T14:39:55.114Z,2.40
2022-09-09T14:42:23.046Z,2.08
2022-09-09T14:44:50.237Z,2.33
2022-09-09T14:47:17.866Z,2.33
2022-09-09T14:49:47.118Z,2.63
2022-09-09T14:52:14.548Z,2.58
2022-09-09T14:54:41.864Z,2.75
2022-09-09T14:57:08.952Z,2.55
2022-09-09T14:59:36.033Z,3.42
2022-09-09T15:02:05.263Z,2.45
2022-09-09T15:04:35.021Z,3.30
2022-09-09T15:07:02.022Z,2.20
2022-09-09T15:09:29.080Z,2.85
2022-09-09T15:11:56.500Z,2.97
2022-09-09T15:14:26.095Z,3.20
2022-09-09T15:16:53.651Z,2.15
2022-09-09T15:19:20.888Z,2.33
2022-09-09T15:21:48.549Z,2.10
2022-09-09T15:24:16.964Z,1.58
2022-09-09T15:26:44.035Z,1.33
2022-09-09T15:29:11.337Z,1.30
2022-09-09T15:31:38.931Z,1.70
2022-09-09T15:34:07.410Z,1.13
2022-09-09T15:36:35.891Z,1.20
2022-09-09T15:39:04.140Z,1.20
2022-09-09T15:41:34.987Z,1.20
2022-09-09T15:44:02.375Z,1.40
2022-09-09T15:46:48.871Z,1.63
2022-09-09T15:49:20.954Z,1.70
2022-09-09T15:51:51.827Z,1.80
2022-09-09T15:54:21.818Z,1.65
2022-09-09T15:56:54.347Z,2.03
2022-09-09T15:59:21.590Z,1.63
2022-09-09T16:01:49.859Z,1.50
2022-09-09T16:04:23.971Z,1.70
2022-09-09T16:06:55.618Z,1.90
2022-09-09T16:09:23.330Z,1.63
2022-09-09T16:11:50.526Z,1.60
2022-09-09T16:14:18.850Z,1.50
2022-09-09T16:16:45.886Z,1.35
2022-09-09T16:19:14.146Z,1.70
2022-09-09T16:21:43.111Z,1.50
2022-09-09T16:24:12.106Z,1.70
2022-09-09T16:26:40.755Z,2.05
2022-09-09T16:29:09.131Z,1.67
2022-09-09T16:31:36.338Z,1.90
2022-09-09T16:34:04.696Z,1.80
2022-09-09T16:36:34.918Z,1.88
2022-09-09T16:39:09.345Z,1.77
2022-09-09T16:41:36.884Z,1.77
2022-09-09T16:44:05.476Z,2.28
2022-09-09T16:46:33.315Z,1.90
2022-09-09T16:49:01.373Z,2.00
2022-09-09T16:51:33.130Z,2.00
2022-09-09T16:54:01.358Z,2.67
2022-09-09T16:56:29.152Z,2.38
2022-09-09T16:58:57.342Z,2.28
2022-09-09T17:01:28.959Z,2.10
2022-09-09T17:04:01.351Z,2.20
2022-09-09T17:06:29.979Z,2.10
2022-09-09T17:08:58.276Z,2.22
2022-09-09T17:11:25.833Z,2.60
2022-09-09T17:13:53.515Z,2.80
2022-09-09T17:16:22.902Z,2.63
2022-09-09T17:18:51.449Z,2.83
2022-09-09T17:21:19.964Z,2.78
2022-09-09T17:23:47.620Z,2.90
2022-09-09T17:26:16.678Z,3.53
2022-09-09T17:28:44.287Z,3.22
2022-09-09T17:31:12.467Z,3.00
2022-09-09T17:33:41.221Z,2.83
2022-09-09T17:36:14.470Z,3.40
2022-09-09T17:38:43.464Z,2.90
2022-09-09T17:41:15.013Z,2.78
2022-09-09T17:43:43.775Z,3.17
2022-09-09T17:46:10.990Z,3.95
2022-09-09T17:48:39.039Z,3.42
2022-09-09T17:51:08.759Z,3.55
2022-09-09T17:53:39.900Z,2.95
2022-09-09T17:56:09.089Z,2.53
2022-09-09T17:58:36.729Z,3.20
2022-09-09T18:01:06.010Z,3.03
2022-09-09T18:03:38.411Z,2.85
2022-09-09T18:06:06.444Z,3.20
2022-09-09T18:08:36.756Z,2.80
2022-09-09T18:11:04.461Z,2.80
2022-09-09T18:13:34.599Z,3.10
2022-09-09T18:16:02.297Z,2.95
2022-09-09T18:18:31.087Z,3.25
2022-09-09T18:21:02.019Z,3.10
2022-09-09T18:23:29.960Z,3.05
2022-09-09T18:25:58.913Z,3.08
2022-09-09T18:28:27.502Z,2.70
2022-09-09T18:30:55.006Z,2.75
2022-09-09T18:33:22.118Z,3.30
2022-09-09T18:35:51.602Z,3.08
2022-09-09T18:38:18.760Z,3.13
2022-09-09T18:40:45.810Z,2.58
2022-09-09T18:43:12.927Z,3.00
2022-09-09T18:45:40.766Z,3.40
2022-09-09T18:48:08.093Z,3.28
2022-09-09T18:50:35.659Z,3.00
2022-09-09T18:53:02.891Z,3.47
2022-09-09T18:55:32.753Z,3.47
2022-09-09T18:57:59.863Z,3.55
2022-09-09T19:00:27.542Z,3.78
2022-09-09T19:02:58.155Z,4.22
2022-09-09T19:05:25.302Z,3.80
2022-09-09T19:07:52.770Z,3.65
2022-09-09T19:10:19.801Z,3.22
2022-09-09T19:12:47.395Z,3.40
2022-09-09T19:15:15.248Z,3.53
2022-09-09T19:17:42.682Z,3.33
2022-09-09T19:20:12.962Z,3.33
2022-09-09T19:22:39.968Z,3.15
2022-09-09T19:25:07.293Z,3.20
2022-09-09T19:27:34.907Z,3.15
2022-09-09T19:30:02.344Z,3.28
2022-09-09T19:32:52.300Z,3.60
2022-09-09T19:35:16.843Z,3.42
2022-09-09T19:37:43.839Z,3.80
2022-09-09T19:40:11.879Z,3.50
2022-09-09T19:42:41.419Z,3.67
2022-09-09T19:45:10.737Z,4.00
2022-09-09T19:47:37.938Z,4.10
2022-09-09T19:50:05.945Z,4.10
2022-09-09T19:52:33.017Z,3.90
2022-09-09T19:55:01.393Z,4.55
2022-09-09T19:57:31.302Z,4.57
2022-09-09T19:59:58.838Z,4.78
2022-09-09T20:02:26.729Z,4.65
2022-09-09T20:04:54.330Z,4.63
2022-09-09T20:07:21.448Z,4.57
2022-09-09T20:09:49.267Z,4.40
2022-09-09T20:12:16.845Z,4.85
2022-09-09T20:14:43.817Z,5.22
2022-09-09T20:17:11.055Z,5.07
2022-09-09T20:19:39.879Z,5.22
2022-09-09T20:22:07.129Z,4.95
2022-09-09T20:24:34.303Z,5.30
2022-09-09T20:27:02.117Z,5.40
2022-09-09T20:29:29.087Z,5.13
2022-09-09T20:31:56.051Z,5.28
2022-09-09T20:34:25.718Z,5.22
2022-09-09T20:36:54.371Z,5.15
2022-09-09T20:39:22.091Z,4.93
2022-09-09T20:41:49.794Z,5.45
2022-09-09T20:44:18.627Z,5.97
2022-09-09T20:46:49.845Z,5.57
2022-09-09T20:49:18.387Z,5.68
2022-09-09T20:51:45.924Z,6.07
2022-09-09T20:54:16.995Z,5.90
2022-09-09T20:56:44.979Z,6.18
2022-09-09T20:59:13.512Z,5.95
2022-09-09T21:01:42.242Z,6.15
2022-09-09T21:04:10.292Z,5.63
2022-09-09T21:06:37.316Z,5.97
2022-09-09T21:09:04.836Z,6.80
2022-09-09T21:11:32.635Z,6.88
2022-09-09T21:13:59.797Z,7.22
2022-09-09T21:16:27.877Z,8.23
2022-09-09T21:18:55.009Z,7.93
2022-09-09T21:21:22.501Z,7.25
2022-09-09T21:23:50.013Z,8.25
2022-09-09T21:26:20.459Z,8.65
2022-09-09T21:28:47.621Z,8.70
2022-09-09T21:31:15.802Z,8.63
2022-09-09T21:33:43.214Z,9.38
2022-09-09T21:36:11.692Z,10.82
2022-09-09T21:38:40.276Z,10.98
2022-09-09T21:41:09.160Z,10.20
2022-09-09T21:43:36.645Z,10.52
2022-09-09T21:46:07.833Z,9.80
2022-09-09T21:48:35.179Z,10.70
2022-09-09T21:51:06.404Z,10.90
2022-09-09T21:53:34.072Z,11.48
2022-09-09T21:56:02.160Z,11.63
2022-09-09T21:58:29.362Z,11.93
2022-09-09T22:00:56.618Z,11.40
2022-09-09T22:03:23.711Z,12.45
2022-09-09T22:05:53.838Z,11.38
2022-09-09T22:08:21.767Z,11.43
2022-09-09T22:10:48.827Z,12.02
2022-09-09T22:13:17.222Z,12.05
2022-09-09T22:15:45.559Z,11.75
2022-09-09T22:18:13.998Z,12.40
2022-09-09T22:20:42.215Z,11.73
2022-09-09T22:23:10.104Z,11.50
2022-09-09T22:25:38.009Z,13.18
2022-09-09T22:28:05.728Z,13.23
2022-09-09T22:30:33.694Z,13.70
2022-09-09T22:33:02.395Z,12.13
2022-09-09T22:35:29.606Z,11.65
2022-09-09T22:37:57.726Z,12.40
2022-09-09T22:40:24.976Z,12.57
2022-09-09T22:42:53.659Z,12.48
2022-09-09T22:45:21.860Z,11.90
2022-09-09T22:47:49.098Z,13.75
2022-09-09T22:50:16.620Z,13.38
2022-09-09T22:52:43.632Z,12.70
2022-09-09T22:55:10.644Z,13.40
2022-09-09T22:57:37.808Z,13.48
2022-09-09T23:00:09.256Z,12.05
2022-09-09T23:02:40.923Z,12.13
2022-09-09T23:05:08.609Z,11.90
2022-09-09T23:07:38.800Z,11.65
2022-09-09T23:10:06.852Z,12.98
2022-09-09T23:12:34.673Z,11.77
2022-09-09T23:15:03.287Z,10.77
2022-09-09T23:17:32.922Z,10.57
2022-09-09T23:19:59.907Z,10.73
2022-09-09T23:22:27.802Z,11.60
2022-09-09T23:24:55.296Z,9.57
2022-09-09T23:27:22.450Z,10.65
2022-09-09T23:29:49.841Z,10.65
2022-09-09T23:32:17.650Z,8.80
2022-09-09T23:34:45.819Z,9.23
2022-09-09T23:37:13.186Z,9.45
2022-09-09T23:39:40.621Z,9.40
2022-09-09T23:42:08.795Z,8.50
2022-09-09T23:44:38.147Z,8.80
2022-09-09T23:47:05.839Z,8.60
2022-09-09T23:49:33.606Z,8.65
2022-09-09T23:52:06.479Z,7.50
2022-09-09T23:54:34.826Z,7.68
2022-09-09T23:57:02.898Z,7.75
2022-09-09T23:59:30.681Z,7.38
